Time;durP1;ratioP1;P1;durP2;ratioP2;P2;SDS_P1;SDS_P2;PMS_P1;PMS_P2;Temp;Humidity;BMP_temperature;BMP_pressure;BME280_temperature;BME280_humidity;BME280_pressure;Samples;Min_cycle;Max_cycle;Signal;HPM_P1;HPM_P2
2022/05/29 00:06:04;;;;;;;5.40;2.72;;;25.00;32.10;;;;;;20913108;28;20401;-66
2022/05/29 00:16:06;;;;;;;5.97;3.95;;;24.80;32.50;;;;;;20922977;28;20041;-68
2022/05/29 00:26:08;;;;;;;4.82;3.50;;;24.80;32.70;;;;;;20921788;28;20052;-67
2022/05/29 00:36:14;;;;;;;5.82;3.50;;;24.70;32.90;;;;;;20922694;28;20106;-66
2022/05/29 00:46:16;;;;;;;5.70;3.78;;;24.90;33.10;;;;;;20919888;28;20049;-68
2022/05/29 00:56:18;;;;;;;7.25;4.82;;;24.60;33.40;;;;;;20920896;28;20053;-67
2022/05/29 01:06:22;;;;;;;9.05;3.53;;;24.60;33.80;;;;;;20918318;28;20394;-66
2022/05/29 01:16:28;;;;;;;6.13;3.78;;;24.60;33.80;;;;;;20919036;28;20405;-67
2022/05/29 01:27:04;;;;;;;8.20;4.10;;;24.40;34.20;;;;;;20918413;28;20104;-65
2022/05/29 01:37:29;;;;;;;8.18;3.90;;;24.40;34.40;;;;;;20916973;28;20131;-66
2022/05/29 01:47:49;;;;;;;7.05;3.75;;;24.30;34.30;;;;;;20915318;28;20053;-64
2022/05/29 01:58:10;;;;;;;6.07;3.45;;;24.40;34.20;;;;;;20916188;28;20056;-65
2022/05/29 02:08:33;;;;;;;9.05;3.65;;;24.20;34.50;;;;;;20914331;28;20052;-64
2022/05/29 02:19:07;;;;;;;8.23;2.88;;;23.80;34.90;;;;;;20914560;28;20049;-65
2022/05/29 02:29:15;;;;;;;6.40;3.08;;;23.80;34.80;;;;;;20912478;28;20084;-67
2022/05/29 02:39:47;;;;;;;5.97;3.00;;;23.60;35.20;;;;;;20912175;28;20356;-63
2022/05/29 02:50:19;;;;;;;6.20;3.10;;;23.40;35.90;;;;;;20912067;28;20076;-66
2022/05/29 03:00:22;;;;;;;5.82;2.75;;;23.10;37.50;;;;;;20911280;28;20398;-65
2022/05/29 03:10:34;;;;;;;5.90;3.38;;;22.70;37.80;;;;;;20911222;28;20485;-66
2022/05/29 03:21:09;;;;;;;6.65;2.72;;;22.60;37.80;;;;;;20910992;28;20558;-66
2022/05/29 03:31:18;;;;;;;7.18;2.65;;;22.40;37.80;;;;;;20910305;28;20053;-65
2022/05/29 03:41:43;;;;;;;4.60;2.85;;;22.20;38.20;;;;;;20913893;28;20045;-65
2022/05/29 03:51:45;;;;;;;6.70;2.50;;;22.20;38.50;;;;;;20924961;28;20424;-66
2022/05/29 04:01:46;;;;;;;8.05;3.15;;;22.10;39.20;;;;;;20924771;28;20056;-63
2022/05/29 04:12:07;;;;;;;4.10;2.53;;;21.90;40.10;;;;;;20924273;28;20390;-67
2022/05/29 04:22:14;;;;;;;5.85;2.50;;;21.60;40.50;;;;;;20922878;28;20298;-62
2022/05/29 04:42:36;;;;;;;7.15;2.30;;;21.20;40.60;;;;;;20921307;28;20052;-67
2022/05/29 04:52:37;;;;;;;5.10;2.78;;;20.70;41.50;;;;;;20920030;28;20386;-66
2022/05/29 05:02:39;;;;;;;4.63;2.22;;;20.70;41.60;;;;;;20919480;28;20065;-61
2022/05/29 05:12:43;;;;;;;4.43;2.30;;;20.60;42.10;;;;;;20919272;28;20408;-63
2022/05/29 05:22:45;;;;;;;3.60;2.08;;;20.40;42.30;;;;;;20919428;28;20048;-62
2022/05/29 05:32:47;;;;;;;4.85;2.30;;;20.60;42.00;;;;;;20918245;28;20104;-62
2022/05/29 05:42:48;;;;;;;5.38;2.55;;;20.60;42.10;;;;;;20917240;28;20547;-65
2022/05/29 05:52:49;;;;;;;11.85;2.35;;;20.60;42.40;;;;;;20914733;28;20144;-62
2022/05/29 06:02:50;;;;;;;6.57;3.70;;;20.70;42.70;;;;;;20914680;28;20084;-68
2022/05/29 06:12:54;;;;;;;10.82;4.20;;;21.20;40.90;;;;;;20915263;28;20385;-66
2022/05/29 06:22:56;;;;;;;7.63;2.77;;;21.40;40.60;;;;;;20913634;28;20048;-67
2022/05/29 06:33:01;;;;;;;8.50;3.45;;;21.60;39.20;;;;;;20912711;28;20493;-65
2022/05/29 06:43:03;;;;;;;10.77;3.30;;;21.60;38.80;;;;;;20913852;28;20049;-64
2022/05/29 06:53:07;;;;;;;7.57;3.10;;;21.90;38.10;;;;;;20912138;28;20053;-65
2022/05/29 07:13:38;;;;;;;9.93;3.28;;;23.20;35.70;;;;;;20912627;28;20053;-62
2022/05/29 07:23:40;;;;;;;5.07;2.78;;;23.80;34.60;;;;;;20928768;28;20053;-61
2022/05/29 07:33:42;;;;;;;4.80;1.80;;;24.50;34.20;;;;;;20928127;28;20049;-66
2022/05/29 07:43:44;;;;;;;;;;;25.10;32.70;;;;;;20926790;28;20072;-67
2022/05/29 07:53:49;;;;;;;7.80;2.80;;;25.50;32.40;;;;;;20925394;28;19959;-65
2022/05/29 08:03:51;;;;;;;;;;;26.00;31.80;;;;;;20925214;28;20071;-67
2022/05/29 08:13:54;;;;;;;7.70;2.40;;;26.40;31.40;;;;;;20923786;28;19927;-66
2022/05/29 08:34:19;;;;;;;9.20;2.75;;;26.70;30.80;;;;;;20922181;28;20409;-65
2022/05/29 08:44:29;;;;;;;8.27;3.90;;;27.00;31.10;;;;;;20921690;28;20542;-68
2022/05/29 08:54:55;;;;;;;6.28;1.95;;;27.20;31.20;;;;;;20920494;28;20053;-67
2022/05/29 09:05:14;;;;;;;10.73;6.65;;;27.50;30.70;;;;;;20919271;28;20091;-68
2022/05/29 09:15:49;;;;;;;7.85;2.45;;;27.60;31.80;;;;;;20920415;28;20060;-67
2022/05/29 09:25:52;;;;;;;7.10;2.28;;;27.80;31.90;;;;;;20918186;28;20159;-65
2022/05/29 09:36:10;;;;;;;4.50;2.10;;;27.60;30.70;;;;;;20918430;28;20551;-68
2022/05/29 09:46:20;;;;;;;5.43;2.45;;;27.90;29.80;;;;;;20916484;28;20485;-67
2022/05/29 09:56:35;;;;;;;6.65;2.55;;;28.10;30.70;;;;;;20916809;28;20549;-66
2022/05/29 10:06:43;;;;;;;5.63;2.20;;;28.20;31.10;;;;;;20915612;28;20049;-69
2022/05/29 10:16:47;;;;;;;5.20;2.13;;;28.10;31.40;;;;;;20914469;28;20049;-67
2022/05/29 10:26:53;;;;;;;5.45;2.50;;;28.20;30.50;;;;;;20914325;28;20085;-67
2022/05/29 10:36:56;;;;;;;5.30;2.55;;;28.30;30.70;;;;;;20913555;28;20045;-69
2022/05/29 10:47:22;;;;;;;5.57;2.10;;;28.60;30.50;;;;;;20911645;28;20110;-68
2022/05/29 10:57:40;;;;;;;6.25;2.15;;;28.80;30.50;;;;;;20912064;28;20507;-70
2022/05/29 11:08:14;;;;;;;11.63;3.00;;;29.00;30.20;;;;;;20911390;28;20103;-67
2022/05/29 11:18:30;;;;;;;8.30;4.22;;;29.30;29.50;;;;;;20642150;28;20204;-62
2022/05/29 11:28:45;;;;;;;4.95;2.50;;;29.20;30.70;;;;;;20657223;28;20058;-70
2022/05/29 11:39:08;;;;;;;10.82;4.50;;;29.40;30.50;;;;;;20656881;28;20051;-60
2022/05/29 12:00:24;;;;;;;6.63;2.73;;;29.70;28.90;;;;;;20910829;28;20053;-67
2022/05/29 12:10:34;;;;;;;4.32;2.10;;;29.80;28.60;;;;;;20924387;28;20052;-69
2022/05/29 12:20:52;;;;;;;19.23;11.68;;;29.90;26.20;;;;;;20923683;28;20052;-65
2022/05/29 12:30:57;;;;;;;6.65;2.88;;;29.90;28.00;;;;;;20921564;28;20044;-69
2022/05/29 12:41:33;;;;;;;5.75;2.30;;;30.00;28.00;;;;;;20920761;28;20045;-67
2022/05/29 12:52:00;;;;;;;6.53;2.30;;;30.30;26.40;;;;;;20921200;28;20084;-69
2022/05/29 13:02:16;;;;;;;5.75;2.05;;;30.40;26.20;;;;;;20920337;28;20136;-67
2022/05/29 13:12:29;;;;;;;4.68;2.30;;;30.40;25.90;;;;;;20919418;28;20088;-69
2022/05/29 13:22:57;;;;;;;10.25;2.65;;;30.60;24.30;;;;;;20920259;28;20049;-69
2022/05/29 13:33:29;;;;;;;5.15;2.60;;;30.60;25.60;;;;;;20918696;28;20494;-68
2022/05/29 13:43:31;;;;;;;8.32;2.95;;;30.80;26.20;;;;;;20663557;28;20064;-66
2022/05/29 13:53:46;;;;;;;6.68;2.33;;;30.70;25.70;;;;;;20662914;28;20553;-69
2022/05/29 14:03:58;;;;;;;8.35;2.90;;;30.90;25.40;;;;;;20661902;28;20054;-69
2022/05/29 14:14:35;;;;;;;4.47;2.63;;;31.00;25.00;;;;;;20735519;28;20179;-65
2022/05/29 14:25:12;;;;;;;6.78;2.15;;;31.10;25.00;;;;;;20913380;28;20098;-70
2022/05/29 14:35:46;;;;;;;3.13;1.77;;;31.20;24.70;;;;;;20914753;28;20095;-68
2022/05/29 14:46:17;;;;;;;5.07;2.22;;;31.20;24.50;;;;;;20899428;28;20057;-69
2022/05/29 14:56:38;;;;;;;5.47;2.00;;;31.20;24.50;;;;;;20905074;28;20049;-70
2022/05/29 15:17:05;;;;;;;4.80;2.47;;;31.50;24.10;;;;;;20911420;28;20094;-66
2022/05/29 15:27:09;;;;;;;8.20;2.97;;;31.50;24.40;;;;;;20911355;28;20122;-70
2022/05/29 15:37:59;;;;;;;8.10;2.33;;;31.50;23.80;;;;;;20918547;28;20048;-69
2022/05/29 15:48:01;;;;;;;6.18;2.60;;;31.50;23.40;;;;;;20921443;28;20055;-71
2022/05/29 15:58:34;;;;;;;6.40;2.78;;;31.20;23.70;;;;;;20925024;28;20083;-67
2022/05/29 16:08:36;;;;;;;10.50;2.13;;;31.10;23.90;;;;;;20925181;28;20398;-70
2022/05/29 16:19:02;;;;;;;7.38;3.00;;;31.00;23.00;;;;;;20923579;28;20056;-66
2022/05/29 16:29:21;;;;;;;5.35;2.33;;;30.90;23.80;;;;;;20922808;28;20057;-68
2022/05/29 16:49:44;;;;;;;5.95;2.42;;;30.60;24.00;;;;;;20919934;28;20063;-69
2022/05/29 16:59:54;;;;;;;8.88;2.47;;;30.50;23.80;;;;;;20917819;28;20094;-67
2022/05/29 17:10:24;;;;;;;6.57;2.10;;;30.50;23.70;;;;;;20894273;28;20572;-69
2022/05/29 17:20:26;;;;;;;8.53;2.37;;;30.30;23.80;;;;;;20919138;28;20056;-67
2022/05/29 17:30:37;;;;;;;4.85;2.33;;;30.10;23.60;;;;;;20918294;28;20088;-63
2022/05/29 17:40:43;;;;;;;5.70;2.63;;;29.80;23.70;;;;;;20917730;28;20219;-68
2022/05/29 17:50:54;;;;;;;5.35;2.15;;;29.90;24.20;;;;;;20916142;28;20049;-69
2022/05/29 18:00:56;;;;;;;;;;;29.80;24.60;;;;;;20915424;28;20052;-70
2022/05/29 18:11:08;;;;;;;9.07;2.80;;;29.60;25.60;;;;;;20914812;28;19975;-69
2022/05/29 18:21:09;;;;;;;6.90;2.60;;;29.20;27.30;;;;;;20913982;28;20041;-65
2022/05/29 18:31:11;;;;;;;5.38;2.50;;;29.20;27.80;;;;;;20913829;28;20098;-70
2022/05/29 18:41:14;;;;;;;5.93;2.50;;;29.10;28.50;;;;;;20913165;28;20072;-70
2022/05/29 18:51:16;;;;;;;5.82;2.47;;;28.80;28.70;;;;;;20911660;28;20098;-72
2022/05/29 19:01:19;;;;;;;6.13;2.92;;;28.60;29.10;;;;;;20912649;28;20052;-69
2022/05/29 19:11:21;;;;;;;7.88;2.88;;;28.20;29.70;;;;;;20920032;28;20053;-68
2022/05/29 19:21:24;;;;;;;6.20;2.35;;;28.30;29.20;;;;;;20939513;28;20055;-73
2022/05/29 19:31:40;;;;;;;4.55;2.83;;;28.10;28.90;;;;;;20942502;28;20132;-67
2022/05/29 19:41:43;;;;;;;6.93;3.17;;;27.90;28.60;;;;;;20943335;28;20045;-61
2022/05/29 19:51:45;;;;;;;7.25;3.45;;;27.70;28.40;;;;;;20940458;28;20053;-70
2022/05/29 20:01:46;;;;;;;7.15;3.20;;;27.50;28.30;;;;;;20938642;28;20497;-70
2022/05/29 20:11:48;;;;;;;5.43;3.20;;;27.30;28.30;;;;;;20937354;28;20049;-68
2022/05/29 20:21:50;;;;;;;7.07;4.80;;;27.20;28.40;;;;;;20934414;28;20045;-70
2022/05/29 20:31:52;;;;;;;4.35;2.10;;;26.90;29.10;;;;;;20925394;28;20550;-69
2022/05/29 20:41:55;;;;;;;9.82;2.70;;;26.60;29.40;;;;;;20928114;28;20072;-70
2022/05/29 20:51:58;;;;;;;7.72;3.05;;;26.50;29.70;;;;;;20929006;28;20126;-71
2022/05/29 21:02:00;;;;;;;16.63;14.50;;;26.40;29.30;;;;;;20924206;28;20080;-62
2022/05/29 21:12:02;;;;;;;3.83;2.20;;;26.10;29.40;;;;;;20927074;28;20481;-66
2022/05/29 21:22:06;;;;;;;4.70;2.55;;;26.10;29.60;;;;;;20923246;28;20124;-67
2022/05/29 21:32:08;;;;;;;6.60;3.70;;;25.90;30.00;;;;;;20922140;28;20053;-64
2022/05/29 21:42:11;;;;;;;7.82;2.97;;;25.70;30.40;;;;;;20921240;28;20056;-69
2022/05/29 21:52:13;;;;;;;5.60;3.17;;;25.60;30.80;;;;;;20917498;28;20059;-67
2022/05/29 22:02:15;;;;;;;8.93;3.25;;;25.50;30.80;;;;;;20916082;28;20049;-69
2022/05/29 22:12:18;;;;;;;6.97;3.00;;;25.40;30.80;;;;;;20915755;28;20385;-70
2022/05/29 22:22:20;;;;;;;3.88;3.13;;;25.20;30.90;;;;;;20914830;28;20048;-69
2022/05/29 22:32:30;;;;;;;4.97;3.10;;;25.20;30.90;;;;;;20946897;28;20052;-70
2022/05/29 22:42:32;;;;;;;6.45;3.85;;;25.00;31.00;;;;;;20913281;28;20512;-69
2022/05/29 22:52:39;;;;;;;5.85;4.13;;;24.80;31.00;;;;;;20911599;28;20049;-64
2022/05/29 23:02:42;;;;;;;6.78;3.80;;;24.70;30.90;;;;;;20913015;28;20057;-70
2022/05/29 23:12:44;;;;;;;6.63;4.03;;;24.50;30.70;;;;;;20913499;28;20136;-67
2022/05/29 23:22:46;;;;;;;6.47;3.23;;;24.30;31.10;;;;;;20912582;28;20353;-67
2022/05/29 23:32:52;;;;;;;8.25;5.80;;;24.40;32.00;;;;;;20911774;28;20060;-69
2022/05/29 23:42:54;;;;;;;5.38;3.13;;;23.90;32.50;;;;;;20911571;28;20053;-68
2022/05/29 23:52:57;;;;;;;4.60;3.15;;;23.80;33.20;;;;;;20910834;28;20489;-64
